This demonstration page uses our WeatherBlox Daily Observations layout. Learn more.

41.55636, -103.73856

Hourly Observations for July 7, 2019

Temp ( °F °C ) Dew Point ( °F °C ) Humidity (%) Winds ( mph kmh ) Pressure ( in mb ) Visibility ( mi km ) Precip ( " mm )
12:53 am 00:53 Mostly Clear 59 15 N/A N/A S 8 13 30 1016 10 16.09344 0 0
1:53 am 01:53 Clear 59 15 N/A N/A S 8 13 30.03 1017 10 16.09344 0 0
2:53 am 02:53 Clear 57 14 N/A N/A Calm 30 1016 10 16.09344 0 0
3:53 am 03:53 Clear 55 13 N/A N/A NE 3 6 30 1016 10 16.09344 0 0
4:53 am 04:53 Clear 54 12 N/A N/A NNW 3 6 30.03 1017 10 16.09344 0 0
5:53 am 05:53 Cloudy 57 14 N/A N/A Calm 30.03 1017 10 16.09344 0 0
6:53 am 06:53 Cloudy 61 16 N/A N/A ENE 3 6 30.03 1017 10 16.09344 0 0
7:53 am 07:53 Cloudy 61 16 N/A N/A SE 3 6 30 1016 10 16.09344 0 0
8:53 am 08:53 Cloudy 64 18 N/A N/A SSE 7 11 30 1016 10 16.09344 0 0
9:53 am 09:53 Cloudy 66 19 N/A N/A SE 7 11 30.03 1017 10 16.09344 0 0
10:53 am 10:53 Partly Cloudy 70 21 N/A N/A SE 9 15 29.97 1015 10 16.09344 0 0
11:53 am 11:53 Sunny 75 24 N/A N/A SE 9 15 29.94 1014 10 16.09344 0 0
12:53 pm 12:53 Sunny 79 26 N/A N/A SSE 10 17 29.91 1013 10 16.09344 0 0
1:53 pm 13:53 Sunny 81 27 N/A N/A SE 8 13 29.88 1012 10 16.09344 0 0
2:53 pm 14:53 Sunny 82 28 N/A N/A SSE 12 19 29.85 1011 10 16.09344 0 0
3:53 pm 15:53 Sunny 84 29 N/A N/A SSE 12 19 29.83 1010 10 16.09344 0 0
4:53 pm 16:53 Sunny 84 29 N/A N/A ESE 6 9 29.83 1010 10 16.09344 0 0
5:53 pm 17:53 Sunny 82 28 N/A N/A ENE 6 9 29.83 1010 10 16.09344 0 0
6:53 pm 18:53 Sunny 81 27 N/A N/A E 6 9 29.83 1010 10 16.09344 0 0
7:53 pm 19:53 Sunny 79 26 N/A N/A ESE 16 26 29.8 1009 10 16.09344 0 0
8:53 pm 20:53 Clear 75 24 N/A N/A SSE 12 19 29.8 1009 10 16.09344 0 0
9:11 pm 21:11 Clear with Nearby Thunderstorms 75 24 N/A N/A S 7 11 29.71 1006 10 16.09344 0 0
9:27 pm 21:27 Clear 73 23 N/A N/A SE 9 15 29.74 1007 10 16.09344 0 0
9:53 pm 21:53 Clear 73 23 N/A N/A S 6 9 29.85 1011 10 16.09344 0 0
10:53 pm 22:53 Clear 72 22 N/A N/A Calm 29.88 1012 10 16.09344 0 0
11:53 pm 23:53 Clear 72 22 N/A N/A SSE 13 20 29.85 1011 10 16.09344 0 0

Powered by AerisWeather